UAL12 KLAX-CYVR
Flight info
| Callsign | UAL12 |
|---|---|
| Flight time | N/A |
| Altitude | 34000 |
| Route | SUMMR2 SCTRR DCT SNS J126 SAC DCT LMT J65 SEA DCT PAE GRIZZ9 |
| Aircraft | B77W/H-SDE1E2E3FGHIJ2J3J4J5M1RWXY/LB1D1 |
Departure
| Time | N/A |
|---|---|
| Airport | Los Angeles International Airport (KLAX) |
Arrival
| Time | 2026-05-03 22:13 |
|---|---|
| Airport | Vancouver International Airport (CYVR) |
| Time | Latitude | Longitude | Altitude | Speed | Heading |
|---|---|---|---|---|---|
| 2026-05-03 20:15 | 35.61092 | -120.65649 | 34065 ft | 449 kts | 311° |
| 2026-05-03 20:15 | 35.66194 | -120.70133 | 34066 ft | 451 kts | 312° |
| 2026-05-03 20:16 | 35.71261 | -120.74613 | 34070 ft | 452 kts | 312° |
| 2026-05-03 20:16 | 35.76376 | -120.79151 | 34056 ft | 454 kts | 312° |
| 2026-05-03 20:17 | 35.81534 | -120.83738 | 34034 ft | 456 kts | 312° |
| 2026-05-03 20:17 | 35.86690 | -120.88330 | 34025 ft | 457 kts | 313° |
| 2026-05-03 20:18 | 35.91824 | -120.92909 | 34019 ft | 459 kts | 313° |
| 2026-05-03 20:18 | 35.97018 | -120.97550 | 34021 ft | 461 kts | 313° |
| 2026-05-03 20:19 | 36.02215 | -121.02204 | 34014 ft | 462 kts | 314° |
| 2026-05-03 20:19 | 36.07432 | -121.06879 | 34018 ft | 463 kts | 314° |
| 2026-05-03 20:20 | 36.12637 | -121.11554 | 34007 ft | 466 kts | 314° |
| 2026-05-03 20:20 | 36.17888 | -121.16279 | 34010 ft | 467 kts | 315° |
| 2026-05-03 20:21 | 36.23169 | -121.21038 | 34013 ft | 469 kts | 315° |
| 2026-05-03 20:21 | 36.28432 | -121.25786 | 34015 ft | 471 kts | 315° |
| 2026-05-03 20:22 | 36.33730 | -121.30575 | 34015 ft | 474 kts | 316° |
| 2026-05-03 20:22 | 36.39085 | -121.35425 | 34020 ft | 476 kts | 316° |
| 2026-05-03 20:23 | 36.44445 | -121.40289 | 34028 ft | 478 kts | 317° |
| 2026-05-03 20:23 | 36.49830 | -121.45184 | 34031 ft | 480 kts | 317° |
| 2026-05-03 20:24 | 36.55226 | -121.50097 | 34035 ft | 481 kts | 317° |
| 2026-05-03 20:24 | 36.60608 | -121.55004 | 34036 ft | 482 kts | 317° |
| 2026-05-03 20:25 | 36.66512 | -121.59118 | 34025 ft | 497 kts | 336° |
| 2026-05-03 20:25 | 36.69905 | -121.60145 | 34032 ft | 506 kts | 347° |
| 2026-05-03 20:25 | 36.73447 | -121.60394 | 34041 ft | 512 kts | 356° |
| 2026-05-03 20:26 | 36.80565 | -121.60105 | 34041 ft | 515 kts | 358° |
| 2026-05-03 20:26 | 36.87740 | -121.59753 | 34032 ft | 515 kts | 358° |
| 2026-05-03 20:27 | 36.94918 | -121.59491 | 34043 ft | 514 kts | 358° |
| 2026-05-03 20:27 | 37.02035 | -121.59289 | 34020 ft | 513 kts | 358° |
| 2026-05-03 20:28 | 37.09182 | -121.59097 | 34015 ft | 512 kts | 358° |
| 2026-05-03 20:28 | 37.16292 | -121.58901 | 33996 ft | 511 kts | 359° |
| 2026-05-03 20:29 | 37.23396 | -121.58699 | 33999 ft | 509 kts | 359° |
| 2026-05-03 20:29 | 37.30447 | -121.58498 | 33997 ft | 509 kts | 360° |
| 2026-05-03 20:30 | 37.37528 | -121.58296 | 33993 ft | 508 kts | 0° |
| 2026-05-03 20:30 | 37.44582 | -121.58094 | 33994 ft | 507 kts | 0° |
| 2026-05-03 20:31 | 37.51641 | -121.57892 | 33955 ft | 507 kts | 0° |
| 2026-05-03 20:31 | 37.58651 | -121.57691 | 33955 ft | 506 kts | 1° |
| 2026-05-03 20:32 | 37.65733 | -121.57488 | 33950 ft | 506 kts | 1° |
| 2026-05-03 20:32 | 37.72728 | -121.57287 | 33955 ft | 505 kts | 1° |
| 2026-05-03 20:33 | 37.79767 | -121.57084 | 33954 ft | 504 kts | 2° |
| 2026-05-03 20:33 | 37.86749 | -121.56882 | 33950 ft | 504 kts | 2° |
| 2026-05-03 20:34 | 37.93754 | -121.56679 | 33957 ft | 503 kts | 2° |
| 2026-05-03 20:34 | 38.00750 | -121.56477 | 33956 ft | 502 kts | 2° |
| 2026-05-03 20:35 | 38.07761 | -121.56273 | 33957 ft | 501 kts | 3° |
| 2026-05-03 20:35 | 38.14685 | -121.56071 | 33954 ft | 500 kts | 3° |
| 2026-05-03 20:36 | 38.21660 | -121.55868 | 33954 ft | 499 kts | 4° |
| 2026-05-03 20:36 | 38.28607 | -121.55664 | 33962 ft | 498 kts | 4° |
| 2026-05-03 20:37 | 38.35488 | -121.55463 | 33960 ft | 498 kts | 5° |
| 2026-05-03 20:37 | 38.42421 | -121.55259 | 33971 ft | 497 kts | 5° |
| 2026-05-03 20:38 | 38.49217 | -121.55310 | 33977 ft | 497 kts | 2° |
| 2026-05-03 20:38 | 38.56117 | -121.55654 | 33968 ft | 497 kts | 1° |
| 2026-05-03 20:39 | 38.63034 | -121.56023 | 33960 ft | 496 kts | 2° |
| 2026-05-03 20:39 | 38.69927 | -121.56358 | 33950 ft | 495 kts | 2° |
| 2026-05-03 20:40 | 38.76763 | -121.56669 | 33957 ft | 493 kts | 2° |
| 2026-05-03 20:40 | 38.83631 | -121.56978 | 33955 ft | 492 kts | 2° |
| 2026-05-03 20:41 | 38.90452 | -121.57286 | 33949 ft | 491 kts | 2° |
| 2026-05-03 20:41 | 38.97264 | -121.57596 | 33954 ft | 490 kts | 3° |
| 2026-05-03 20:42 | 39.04077 | -121.57907 | 33950 ft | 489 kts | 3° |
| 2026-05-03 20:42 | 39.10894 | -121.58219 | 33955 ft | 488 kts | 3° |
| 2026-05-03 20:43 | 39.17693 | -121.58531 | 33952 ft | 487 kts | 3° |
| 2026-05-03 20:43 | 39.24425 | -121.58840 | 33951 ft | 486 kts | 3° |
| 2026-05-03 20:44 | 39.31192 | -121.59151 | 33954 ft | 484 kts | 3° |
| 2026-05-03 20:44 | 39.37895 | -121.59460 | 33959 ft | 483 kts | 3° |
| 2026-05-03 20:45 | 39.44630 | -121.59771 | 33960 ft | 483 kts | 2° |
| 2026-05-03 20:45 | 39.51313 | -121.60080 | 33957 ft | 483 kts | 2° |
| 2026-05-03 20:46 | 39.58052 | -121.60391 | 33961 ft | 483 kts | 2° |
| 2026-05-03 20:46 | 39.64745 | -121.60702 | 33961 ft | 485 kts | 2° |
| 2026-05-03 20:47 | 39.71507 | -121.61016 | 33955 ft | 485 kts | 2° |
| 2026-05-03 20:47 | 39.78277 | -121.61332 | 33947 ft | 486 kts | 2° |
| 2026-05-03 20:48 | 39.85061 | -121.61649 | 33956 ft | 487 kts | 2° |
| 2026-05-03 20:48 | 39.91797 | -121.61966 | 33951 ft | 487 kts | 2° |
| 2026-05-03 20:49 | 39.97446 | -121.62231 | 33948 ft | 487 kts | 2° |
| 2026-05-03 20:49 | 40.05328 | -121.62601 | 33932 ft | 487 kts | 2° |
| 2026-05-03 20:50 | 40.10973 | -121.62867 | 33929 ft | 487 kts | 2° |
| 2026-05-03 20:50 | 40.17766 | -121.63187 | 33930 ft | 488 kts | 2° |
| 2026-05-03 20:51 | 40.24527 | -121.63505 | 33934 ft | 490 kts | 2° |
| 2026-05-03 20:51 | 40.31363 | -121.63829 | 33928 ft | 491 kts | 2° |
| 2026-05-03 20:52 | 40.38191 | -121.64154 | 33925 ft | 492 kts | 2° |
| 2026-05-03 20:52 | 40.45059 | -121.64481 | 33922 ft | 493 kts | 1° |
| 2026-05-03 20:53 | 40.51929 | -121.64809 | 33921 ft | 493 kts | 1° |
| 2026-05-03 20:53 | 40.58757 | -121.65135 | 33932 ft | 493 kts | 1° |
| 2026-05-03 20:54 | 40.65627 | -121.65463 | 33921 ft | 493 kts | 1° |
| 2026-05-03 20:54 | 40.75883 | -121.65956 | 33899 ft | 492 kts | 1° |
| 2026-05-03 20:55 | 40.82736 | -121.66285 | 33898 ft | 492 kts | 1° |
| 2026-05-03 20:55 | 40.89581 | -121.66615 | 33898 ft | 492 kts | 1° |
| 2026-05-03 20:56 | 40.96451 | -121.66946 | 33908 ft | 493 kts | 0° |
| 2026-05-03 20:56 | 41.03278 | -121.67277 | 33903 ft | 493 kts | 0° |
| 2026-05-03 20:57 | 41.10127 | -121.67609 | 33906 ft | 492 kts | 0° |
| 2026-05-03 20:57 | 41.16975 | -121.67943 | 33924 ft | 491 kts | 0° |
| 2026-05-03 20:58 | 41.23769 | -121.68273 | 33934 ft | 491 kts | 0° |
| 2026-05-03 20:58 | 41.30597 | -121.68606 | 33927 ft | 490 kts | 0° |
| 2026-05-03 20:59 | 41.37430 | -121.68942 | 33951 ft | 490 kts | 0° |
| 2026-05-03 20:59 | 41.44240 | -121.69274 | 33945 ft | 489 kts | 0° |
| 2026-05-03 21:00 | 41.49905 | -121.69553 | 33947 ft | 489 kts | 0° |
| 2026-05-03 21:00 | 41.57840 | -121.69943 | 33947 ft | 489 kts | 0° |
| 2026-05-03 21:01 | 41.64637 | -121.70278 | 33940 ft | 489 kts | 0° |
| 2026-05-03 21:01 | 41.71411 | -121.70613 | 33943 ft | 489 kts | 360° |
| 2026-05-03 21:02 | 41.78226 | -121.70950 | 33937 ft | 489 kts | 360° |
| 2026-05-03 21:02 | 41.84980 | -121.71286 | 33946 ft | 488 kts | 360° |
| 2026-05-03 21:03 | 41.91773 | -121.71624 | 33953 ft | 487 kts | 360° |
| 2026-05-03 21:03 | 41.98511 | -121.71960 | 33973 ft | 486 kts | 360° |
| 2026-05-03 21:04 | 42.05285 | -121.72299 | 33994 ft | 486 kts | 359° |
| 2026-05-03 21:04 | 42.12051 | -121.72637 | 34003 ft | 486 kts | 359° |
| 2026-05-03 21:05 | 42.18768 | -121.73040 | 33993 ft | 486 kts | 358° |
| 2026-05-03 21:05 | 42.25526 | -121.73733 | 33998 ft | 486 kts | 356° |
| 2026-05-03 21:06 | 42.32241 | -121.74477 | 33984 ft | 486 kts | 356° |
| 2026-05-03 21:06 | 42.39004 | -121.75194 | 33959 ft | 485 kts | 357° |
| 2026-05-03 21:07 | 42.45707 | -121.75880 | 33933 ft | 484 kts | 357° |
| 2026-05-03 21:07 | 42.52446 | -121.76564 | 33928 ft | 484 kts | 357° |
| 2026-05-03 21:08 | 42.59122 | -121.77241 | 33927 ft | 483 kts | 357° |
| 2026-05-03 21:08 | 42.65843 | -121.77927 | 33929 ft | 483 kts | 357° |
| 2026-05-03 21:09 | 42.72554 | -121.78615 | 33931 ft | 483 kts | 357° |
| 2026-05-03 21:09 | 42.79211 | -121.79297 | 33945 ft | 483 kts | 357° |
| 2026-05-03 21:10 | 42.85943 | -121.79990 | 33937 ft | 484 kts | 357° |
| 2026-05-03 21:10 | 42.92629 | -121.80679 | 33935 ft | 484 kts | 356° |
| 2026-05-03 21:11 | 42.99352 | -121.81375 | 33945 ft | 484 kts | 356° |
| 2026-05-03 21:11 | 43.06092 | -121.82072 | 33942 ft | 484 kts | 356° |
| 2026-05-03 21:12 | 43.12820 | -121.82768 | 33933 ft | 485 kts | 356° |
| 2026-05-03 21:12 | 43.19527 | -121.83466 | 33947 ft | 484 kts | 356° |
| 2026-05-03 21:13 | 43.26260 | -121.84167 | 33939 ft | 485 kts | 356° |
| 2026-05-03 21:13 | 43.32968 | -121.84868 | 33940 ft | 485 kts | 356° |
| 2026-05-03 21:14 | 43.39693 | -121.85573 | 33944 ft | 485 kts | 356° |
| 2026-05-03 21:14 | 43.46440 | -121.86280 | 33947 ft | 485 kts | 356° |
| 2026-05-03 21:15 | 43.53126 | -121.86983 | 33939 ft | 484 kts | 355° |
| 2026-05-03 21:15 | 43.59845 | -121.87691 | 33947 ft | 483 kts | 355° |
| 2026-05-03 21:16 | 43.66529 | -121.88397 | 33949 ft | 482 kts | 355° |
| 2026-05-03 21:16 | 43.73240 | -121.89108 | 33949 ft | 481 kts | 355° |
| 2026-05-03 21:17 | 43.78788 | -121.89696 | 33950 ft | 480 kts | 355° |
| 2026-05-03 21:17 | 43.86541 | -121.90520 | 33951 ft | 479 kts | 355° |
| 2026-05-03 21:18 | 43.93183 | -121.91228 | 33948 ft | 478 kts | 356° |
| 2026-05-03 21:18 | 43.99838 | -121.91939 | 33952 ft | 477 kts | 356° |
| 2026-05-03 21:19 | 44.06421 | -121.92643 | 33943 ft | 477 kts | 356° |
| 2026-05-03 21:19 | 44.13048 | -121.93354 | 33952 ft | 477 kts | 356° |
| 2026-05-03 21:20 | 44.19681 | -121.94068 | 33942 ft | 477 kts | 356° |
| 2026-05-03 21:20 | 44.26260 | -121.94777 | 33940 ft | 476 kts | 356° |
| 2026-05-03 21:21 | 44.32899 | -121.95495 | 33947 ft | 477 kts | 357° |
| 2026-05-03 21:21 | 44.39421 | -121.96201 | 33941 ft | 477 kts | 357° |
| 2026-05-03 21:22 | 44.46049 | -121.96919 | 33940 ft | 477 kts | 357° |
| 2026-05-03 21:22 | 44.52648 | -121.97635 | 33931 ft | 477 kts | 357° |
| 2026-05-03 21:23 | 44.59299 | -121.98361 | 33934 ft | 478 kts | 357° |
| 2026-05-03 21:23 | 44.65349 | -121.99024 | 33939 ft | 478 kts | 358° |
| 2026-05-03 21:24 | 44.67484 | -121.99257 | 33944 ft | 478 kts | 358° |
| 2026-05-03 21:24 | 44.74110 | -121.99982 | 33936 ft | 477 kts | 358° |
| 2026-05-03 21:25 | 44.80728 | -122.00708 | 33929 ft | 476 kts | 358° |
| 2026-05-03 21:25 | 44.87290 | -122.01431 | 33937 ft | 475 kts | 358° |
| 2026-05-03 21:26 | 44.93882 | -122.02157 | 33928 ft | 474 kts | 358° |
| 2026-05-03 21:26 | 45.00454 | -122.02885 | 33934 ft | 472 kts | 358° |
| 2026-05-03 21:27 | 45.07001 | -122.03611 | 33927 ft | 471 kts | 358° |
| 2026-05-03 21:27 | 45.13521 | -122.04334 | 33926 ft | 470 kts | 358° |
| 2026-05-03 21:28 | 45.20008 | -122.05056 | 33915 ft | 470 kts | 358° |
| 2026-05-03 21:28 | 45.26526 | -122.05784 | 33922 ft | 469 kts | 358° |
| 2026-05-03 21:29 | 45.33017 | -122.06509 | 33910 ft | 468 kts | 358° |
| 2026-05-03 21:29 | 45.39513 | -122.07237 | 33896 ft | 468 kts | 358° |
| 2026-05-03 21:30 | 45.45994 | -122.07966 | 33894 ft | 468 kts | 358° |
| 2026-05-03 21:30 | 45.52499 | -122.08698 | 33882 ft | 468 kts | 358° |
| 2026-05-03 21:31 | 45.59009 | -122.09433 | 33889 ft | 468 kts | 358° |
| 2026-05-03 21:31 | 45.65465 | -122.10163 | 33886 ft | 468 kts | 358° |
| 2026-05-03 21:32 | 45.71959 | -122.10899 | 33900 ft | 468 kts | 358° |
| 2026-05-03 21:32 | 45.78455 | -122.11637 | 33899 ft | 467 kts | 357° |
| 2026-05-03 21:33 | 45.84955 | -122.12378 | 33914 ft | 467 kts | 357° |
| 2026-05-03 21:33 | 45.91401 | -122.13114 | 33907 ft | 466 kts | 357° |
| 2026-05-03 21:34 | 45.97887 | -122.13856 | 33918 ft | 465 kts | 357° |
| 2026-05-03 21:34 | 46.04333 | -122.14596 | 33935 ft | 464 kts | 357° |
| 2026-05-03 21:35 | 46.10744 | -122.15334 | 33927 ft | 464 kts | 357° |
| 2026-05-03 21:35 | 46.17197 | -122.16077 | 33928 ft | 463 kts | 357° |
| 2026-05-03 21:36 | 46.23575 | -122.16814 | 33935 ft | 463 kts | 357° |
| 2026-05-03 21:36 | 46.29977 | -122.17555 | 33926 ft | 463 kts | 356° |
| 2026-05-03 21:37 | 46.36351 | -122.18295 | 33934 ft | 463 kts | 356° |
| 2026-05-03 21:37 | 46.42784 | -122.19044 | 33943 ft | 463 kts | 356° |
| 2026-05-03 21:38 | 46.48141 | -122.19668 | 33941 ft | 464 kts | 356° |
| 2026-05-03 21:38 | 46.54584 | -122.20421 | 33936 ft | 463 kts | 356° |
| 2026-05-03 21:39 | 46.60983 | -122.21171 | 33946 ft | 464 kts | 357° |
| 2026-05-03 21:39 | 46.67433 | -122.21928 | 33959 ft | 464 kts | 356° |
| 2026-05-03 21:40 | 46.73878 | -122.22686 | 33959 ft | 464 kts | 356° |
| 2026-05-03 21:40 | 46.80288 | -122.23443 | 33953 ft | 464 kts | 357° |
| 2026-05-03 21:41 | 46.86725 | -122.24204 | 33965 ft | 464 kts | 357° |
| 2026-05-03 21:41 | 46.93053 | -122.24955 | 33514 ft | 452 kts | 357° |
| 2026-05-03 21:42 | 46.96157 | -122.25325 | 32738 ft | 453 kts | 356° |
| 2026-05-03 21:42 | 46.99325 | -122.25700 | 31631 ft | 461 kts | 356° |
| 2026-05-03 21:42 | 47.02563 | -122.26084 | 30633 ft | 467 kts | 356° |
| 2026-05-03 21:42 | 47.05803 | -122.26470 | 30116 ft | 463 kts | 356° |
| 2026-05-03 21:43 | 47.08955 | -122.26847 | 29516 ft | 460 kts | 356° |
| 2026-05-03 21:43 | 47.12144 | -122.27229 | 29066 ft | 455 kts | 356° |
| 2026-05-03 21:43 | 47.15287 | -122.27606 | 28661 ft | 452 kts | 356° |
| 2026-05-03 21:43 | 47.18422 | -122.27979 | 28241 ft | 450 kts | 356° |
| 2026-05-03 21:44 | 47.21545 | -122.28354 | 27851 ft | 448 kts | 356° |
| 2026-05-03 21:44 | 47.24634 | -122.28725 | 27461 ft | 447 kts | 356° |
| 2026-05-03 21:44 | 47.27730 | -122.29098 | 27077 ft | 445 kts | 356° |
| 2026-05-03 21:44 | 47.30824 | -122.29470 | 26697 ft | 444 kts | 356° |
| 2026-05-03 21:45 | 47.33862 | -122.29835 | 26334 ft | 442 kts | 356° |
| 2026-05-03 21:45 | 47.36925 | -122.30205 | 25963 ft | 441 kts | 356° |
| 2026-05-03 21:45 | 47.39981 | -122.30574 | 25592 ft | 440 kts | 356° |
| 2026-05-03 21:45 | 47.43032 | -122.30921 | 25229 ft | 438 kts | 358° |
| 2026-05-03 21:46 | 47.46085 | -122.30934 | 24873 ft | 436 kts | 2° |
| 2026-05-03 21:46 | 47.49113 | -122.30728 | 24526 ft | 434 kts | 3° |
| 2026-05-03 21:46 | 47.52095 | -122.30500 | 24160 ft | 433 kts | 3° |
| 2026-05-03 21:46 | 47.55116 | -122.30271 | 23814 ft | 431 kts | 3° |
| 2026-05-03 21:47 | 47.58108 | -122.30054 | 23458 ft | 429 kts | 3° |
| 2026-05-03 21:47 | 47.61080 | -122.29848 | 23159 ft | 425 kts | 3° |
| 2026-05-03 21:47 | 47.64028 | -122.29651 | 22886 ft | 421 kts | 3° |
| 2026-05-03 21:47 | 47.66920 | -122.29460 | 22616 ft | 418 kts | 2° |
| 2026-05-03 21:48 | 47.69830 | -122.29269 | 22349 ft | 414 kts | 2° |
| 2026-05-03 21:48 | 47.72695 | -122.29080 | 22107 ft | 411 kts | 2° |
| 2026-05-03 21:48 | 47.75550 | -122.28892 | 21852 ft | 410 kts | 2° |
| 2026-05-03 21:48 | 47.78408 | -122.28704 | 21582 ft | 409 kts | 2° |
| 2026-05-03 21:49 | 47.81207 | -122.28519 | 21342 ft | 407 kts | 2° |
| 2026-05-03 21:49 | 47.84023 | -122.28331 | 21090 ft | 404 kts | 2° |
| 2026-05-03 21:49 | 47.86834 | -122.28144 | 20844 ft | 405 kts | 2° |
| 2026-05-03 21:49 | 47.89650 | -122.27964 | 20590 ft | 403 kts | 1° |
| 2026-05-03 21:50 | 47.92451 | -122.28071 | 20348 ft | 402 kts | 355° |
| 2026-05-03 21:50 | 47.95228 | -122.28631 | 20098 ft | 399 kts | 349° |
| 2026-05-03 21:50 | 47.97946 | -122.29419 | 19842 ft | 397 kts | 349° |
| 2026-05-03 21:50 | 48.00617 | -122.30216 | 19606 ft | 396 kts | 349° |
| 2026-05-03 21:51 | 48.03322 | -122.31023 | 19363 ft | 395 kts | 349° |
| 2026-05-03 21:51 | 48.06036 | -122.31827 | 19112 ft | 395 kts | 349° |
| 2026-05-03 21:51 | 48.08727 | -122.32618 | 18885 ft | 393 kts | 349° |
| 2026-05-03 21:51 | 48.11393 | -122.33397 | 18657 ft | 388 kts | 349° |
| 2026-05-03 21:52 | 48.14033 | -122.34166 | 18330 ft | 383 kts | 349° |
| 2026-05-03 21:52 | 48.16605 | -122.34914 | 17931 ft | 378 kts | 349° |
| 2026-05-03 21:52 | 48.19179 | -122.35663 | 17545 ft | 374 kts | 349° |
| 2026-05-03 21:52 | 48.21709 | -122.36398 | 17243 ft | 367 kts | 349° |
| 2026-05-03 21:53 | 48.24229 | -122.37132 | 16688 ft | 368 kts | 349° |
| 2026-05-03 21:53 | 48.26696 | -122.37851 | 16353 ft | 363 kts | 349° |
| 2026-05-03 21:53 | 48.29175 | -122.38575 | 15830 ft | 364 kts | 349° |
| 2026-05-03 21:53 | 48.31679 | -122.39307 | 15323 ft | 366 kts | 349° |
| 2026-05-03 21:54 | 48.34172 | -122.40036 | 14879 ft | 370 kts | 349° |
| 2026-05-03 21:54 | 48.36706 | -122.40776 | 14426 ft | 371 kts | 349° |
| 2026-05-03 21:54 | 48.39241 | -122.41519 | 13979 ft | 369 kts | 349° |
| 2026-05-03 21:54 | 48.41748 | -122.42254 | 13507 ft | 367 kts | 349° |
| 2026-05-03 21:55 | 48.44263 | -122.42993 | 13021 ft | 366 kts | 349° |
| 2026-05-03 21:55 | 48.46760 | -122.43730 | 12594 ft | 364 kts | 349° |
| 2026-05-03 21:55 | 48.49249 | -122.44462 | 12190 ft | 364 kts | 349° |
| 2026-05-03 21:55 | 48.51702 | -122.45183 | 11849 ft | 363 kts | 349° |
| 2026-05-03 21:56 | 48.54188 | -122.45915 | 11539 ft | 362 kts | 349° |
| 2026-05-03 21:56 | 48.56647 | -122.46641 | 11260 ft | 360 kts | 349° |
| 2026-05-03 21:56 | 48.59105 | -122.47371 | 10978 ft | 358 kts | 349° |
| 2026-05-03 21:56 | 48.61526 | -122.48086 | 10850 ft | 350 kts | 349° |
| 2026-05-03 21:57 | 48.63890 | -122.48785 | 10787 ft | 341 kts | 349° |
| 2026-05-03 21:57 | 48.66197 | -122.49470 | 10742 ft | 333 kts | 349° |
| 2026-05-03 21:57 | 48.68445 | -122.50138 | 10675 ft | 325 kts | 349° |
| 2026-05-03 21:57 | 48.70549 | -122.51033 | 10552 ft | 315 kts | 334° |
| 2026-05-03 21:58 | 48.72283 | -122.53011 | 10486 ft | 310 kts | 312° |
| 2026-05-03 21:58 | 48.73608 | -122.55513 | 10393 ft | 302 kts | 308° |
| 2026-05-03 21:58 | 48.74883 | -122.58032 | 10237 ft | 298 kts | 308° |
| 2026-05-03 21:58 | 48.76136 | -122.60515 | 10086 ft | 295 kts | 308° |
| 2026-05-03 21:59 | 48.77388 | -122.62990 | 9835 ft | 295 kts | 308° |
| 2026-05-03 21:59 | 48.78623 | -122.65423 | 9599 ft | 295 kts | 308° |
| 2026-05-03 21:59 | 48.79873 | -122.67884 | 9440 ft | 293 kts | 308° |
| 2026-05-03 21:59 | 48.81121 | -122.70332 | 9228 ft | 292 kts | 308° |
| 2026-05-03 22:00 | 48.82360 | -122.72764 | 9014 ft | 291 kts | 308° |
| 2026-05-03 22:00 | 48.83597 | -122.75185 | 8776 ft | 290 kts | 308° |
| 2026-05-03 22:00 | 48.84830 | -122.77603 | 8583 ft | 288 kts | 309° |
| 2026-05-03 22:00 | 48.86043 | -122.79983 | 8391 ft | 287 kts | 309° |
| 2026-05-03 22:01 | 48.87261 | -122.82377 | 8170 ft | 286 kts | 309° |
| 2026-05-03 22:01 | 48.88474 | -122.84760 | 7976 ft | 284 kts | 309° |
| 2026-05-03 22:01 | 48.89679 | -122.87130 | 7675 ft | 282 kts | 309° |
| 2026-05-03 22:01 | 48.90882 | -122.89498 | 7320 ft | 282 kts | 308° |
| 2026-05-03 22:02 | 48.92080 | -122.91858 | 7015 ft | 281 kts | 308° |
| 2026-05-03 22:02 | 48.93249 | -122.94171 | 6487 ft | 273 kts | 308° |
| 2026-05-03 22:02 | 48.94408 | -122.96467 | 5750 ft | 273 kts | 308° |
| 2026-05-03 22:02 | 48.95636 | -122.98607 | 5038 ft | 274 kts | 323° |
| 2026-05-03 22:03 | 48.97380 | -122.99736 | 4629 ft | 274 kts | 354° |
| 2026-05-03 22:03 | 48.99255 | -122.99456 | 4303 ft | 271 kts | 20° |
| 2026-05-03 22:03 | 49.00871 | -122.98054 | 3993 ft | 266 kts | 37° |
| 2026-05-03 22:03 | 49.02342 | -122.96306 | 3607 ft | 268 kts | 37° |
| 2026-05-03 22:04 | 49.03811 | -122.94572 | 3323 ft | 266 kts | 37° |
| 2026-05-03 22:04 | 49.05254 | -122.92869 | 3184 ft | 258 kts | 37° |
| 2026-05-03 22:04 | 49.06601 | -122.91201 | 3074 ft | 246 kts | 47° |
| 2026-05-03 22:04 | 49.07402 | -122.88955 | 3023 ft | 242 kts | 76° |
| 2026-05-03 22:05 | 49.07569 | -122.86389 | 3013 ft | 243 kts | 90° |
| 2026-05-03 22:05 | 49.07538 | -122.83794 | 3017 ft | 247 kts | 91° |
| 2026-05-03 22:05 | 49.07493 | -122.81168 | 3014 ft | 248 kts | 91° |
| 2026-05-03 22:05 | 49.07465 | -122.78569 | 2995 ft | 245 kts | 85° |
| 2026-05-03 22:06 | 49.08006 | -122.76168 | 3007 ft | 238 kts | 53° |
| 2026-05-03 22:06 | 49.09241 | -122.74490 | 2994 ft | 245 kts | 24° |
| 2026-05-03 22:06 | 49.10900 | -122.73949 | 2999 ft | 246 kts | 355° |
| 2026-05-03 22:06 | 49.12502 | -122.74763 | 2980 ft | 244 kts | 320° |
| 2026-05-03 22:07 | 49.13664 | -122.76553 | 3015 ft | 239 kts | 313° |
| 2026-05-03 22:07 | 49.14846 | -122.78374 | 3001 ft | 242 kts | 315° |
| 2026-05-03 22:07 | 49.15822 | -122.80420 | 2988 ft | 236 kts | 289° |
| 2026-05-03 22:07 | 49.16190 | -122.82789 | 2996 ft | 225 kts | 280° |
| 2026-05-03 22:08 | 49.16463 | -122.85069 | 2972 ft | 209 kts | 280° |
| 2026-05-03 22:08 | 49.16716 | -122.87213 | 3040 ft | 199 kts | 280° |
| 2026-05-03 22:08 | 49.16946 | -122.89161 | 3017 ft | 179 kts | 281° |
| 2026-05-03 22:08 | 49.17187 | -122.90989 | 3012 ft | 176 kts | 281° |
| 2026-05-03 22:09 | 49.17416 | -122.92855 | 2998 ft | 182 kts | 280° |
| 2026-05-03 22:09 | 49.17643 | -122.94759 | 2899 ft | 180 kts | 280° |
| 2026-05-03 22:09 | 49.17838 | -122.96646 | 2740 ft | 178 kts | 278° |
| 2026-05-03 22:10 | 49.18274 | -123.00325 | 2165 ft | 173 kts | 281° |
| 2026-05-03 22:10 | 49.18498 | -123.02113 | 1827 ft | 171 kts | 280° |
| 2026-05-03 22:10 | 49.18701 | -123.03898 | 1521 ft | 165 kts | 278° |
| 2026-05-03 22:10 | 49.18867 | -123.05579 | 1268 ft | 160 kts | 280° |
| 2026-05-03 22:11 | 49.19059 | -123.07205 | 1075 ft | 150 kts | 276° |
| 2026-05-03 22:11 | 49.19205 | -123.08713 | 919 ft | 139 kts | 282° |
| 2026-05-03 22:11 | 49.19391 | -123.10153 | 747 ft | 134 kts | 280° |
| 2026-05-03 22:11 | 49.19552 | -123.11556 | 570 ft | 134 kts | 280° |
| 2026-05-03 22:12 | 49.19711 | -123.12988 | 468 ft | 138 kts | 281° |
| 2026-05-03 22:12 | 49.19868 | -123.14445 | 303 ft | 145 kts | 280° |
| 2026-05-03 22:12 | 49.20038 | -123.16004 | 100 ft | 149 kts | 282° |
| 2026-05-03 22:12 | 49.20230 | -123.17527 | 26 ft | 138 kts | 280° |
| 2026-05-03 22:13 | 49.20357 | -123.18700 | 30 ft | 52 kts | 279° |
| 2026-05-03 22:13 | 49.20385 | -123.19070 | 27 ft | 32 kts | 272° |
| 2026-05-03 22:13 | 49.20342 | -123.19388 | 27 ft | 17 kts | 251° |
| 2026-05-03 22:13 | 49.20324 | -123.19469 | 27 ft | 0 kts | 251° |
| 2026-05-03 22:14 | 49.20321 | -123.19479 | 27 ft | 4 kts | 251° |
| 2026-05-03 22:14 | 49.20311 | -123.19523 | 27 ft | 4 kts | 251° |
| 2026-05-03 22:15 | 49.20287 | -123.19572 | 27 ft | 2 kts | 195° |
| 2026-05-03 22:15 | 49.20248 | -123.19519 | 27 ft | 18 kts | 116° |
| 2026-05-03 22:15 | 49.20216 | -123.19324 | 27 ft | 19 kts | 99° |
| 2026-05-03 22:15 | 49.20194 | -123.19125 | 28 ft | 19 kts | 99° |
| 2026-05-03 22:16 | 49.20172 | -123.18924 | 28 ft | 19 kts | 99° |
| 2026-05-03 22:16 | 49.20149 | -123.18724 | 28 ft | 19 kts | 100° |
| 2026-05-03 22:16 | 49.20114 | -123.18539 | 28 ft | 14 kts | 137° |
| 2026-05-03 22:16 | 49.20061 | -123.18447 | 28 ft | 12 kts | 115° |
| 2026-05-03 22:17 | 49.20012 | -123.18393 | 28 ft | 9 kts | 174° |
| 2026-05-03 22:17 | 49.19975 | -123.18397 | 28 ft | 0 kts | 186° |